Time;durP1;ratioP1;P1;durP2;ratioP2;P2;SDS_P1;SDS_P2;PMS_P1;PMS_P2;Temp;Humidity;BMP_temperature;BMP_pressure;BME280_temperature;BME280_humidity;BME280_pressure;Samples;Min_cycle;Max_cycle;Signal;HPM_P1;HPM_P2
2021/11/23 00:01:53;;;;;;;18.00;11.77;;;205.50;2252.80;;;;;;5032215;28;20054;-59
2021/11/23 00:04:19;;;;;;;23.00;16.33;;;205.50;2252.80;;;;;;5032706;28;20044;-57
2021/11/23 00:06:45;;;;;;;19.05;13.27;;;205.60;2252.80;;;;;;5032210;28;20468;-58
2021/11/23 00:09:11;;;;;;;21.55;14.05;;;205.60;2252.80;;;;;;5032339;28;20022;-57
2021/11/23 00:11:36;;;;;;;14.15;10.68;;;205.60;2252.80;;;;;;5032129;28;20057;-57
2021/11/23 00:14:02;;;;;;;34.38;22.13;;;205.30;2252.80;;;;;;5032109;28;20030;-56
2021/11/23 00:16:28;;;;;;;15.68;11.85;;;205.40;2252.80;;;;;;5032246;28;20484;-57
2021/11/23 00:18:54;;;;;;;25.23;20.33;;;205.50;2252.80;;;;;;5032028;28;20060;-55
2021/11/23 00:21:20;;;;;;;22.13;14.43;;;205.50;2252.80;;;;;;5032405;28;20121;-59
2021/11/23 00:23:45;;;;;;;19.35;12.90;;;205.50;2252.80;;;;;;5031718;28;20399;-58
2021/11/23 00:26:11;;;;;;;15.52;10.45;;;205.60;2252.80;;;;;;5032118;28;20025;-57
2021/11/23 00:28:37;;;;;;;17.80;11.40;;;205.70;2252.80;;;;;;5031787;28;20029;-57
2021/11/23 00:31:02;;;;;;;21.63;13.85;;;205.60;2252.80;;;;;;5031889;28;20037;-58
2021/11/23 00:33:31;;;;;;;16.83;10.07;;;205.60;2252.80;;;;;;5031843;28;20044;-56
2021/11/23 00:35:57;;;;;;;16.40;11.23;;;205.50;2252.80;;;;;;5031653;28;20026;-55
2021/11/23 00:38:23;;;;;;;17.25;12.18;;;205.40;2252.80;;;;;;5031646;28;20057;-56
2021/11/23 00:40:49;;;;;;;13.43;9.23;;;205.50;2252.80;;;;;;5031945;28;20056;-57
2021/11/23 00:43:15;;;;;;;12.65;8.63;;;205.30;2252.80;;;;;;5031552;28;20037;-57
2021/11/23 00:45:42;;;;;;;13.43;7.90;;;205.40;2252.80;;;;;;5031829;28;20486;-55
2021/11/23 00:48:09;;;;;;;13.63;9.57;;;205.50;2252.80;;;;;;5031647;28;20021;-58
2021/11/23 00:50:35;;;;;;;15.48;10.38;;;205.40;2252.80;;;;;;5031689;28;20028;-58
2021/11/23 00:53:02;;;;;;;16.90;9.45;;;205.30;2252.80;;;;;;5031814;28;20108;-56
2021/11/23 00:55:30;;;;;;;19.17;14.55;;;205.40;2252.80;;;;;;5031602;28;20029;-56
2021/11/23 00:57:56;;;;;;;14.43;9.55;;;205.40;2252.80;;;;;;5030946;28;20021;-58
2021/11/23 01:00:23;;;;;;;12.52;7.82;;;205.40;2252.80;;;;;;5030906;28;20037;-57
2021/11/23 01:02:49;;;;;;;13.23;8.80;;;205.30;2252.80;;;;;;5031319;28;20048;-58
2021/11/23 01:05:15;;;;;;;14.98;10.02;;;205.40;2252.80;;;;;;5031071;28;20471;-56
2021/11/23 01:07:41;;;;;;;13.18;9.27;;;205.30;2252.80;;;;;;5031354;28;20030;-58
2021/11/23 01:10:09;;;;;;;13.73;10.07;;;205.30;2252.80;;;;;;5030864;28;20028;-56
2021/11/23 01:12:36;;;;;;;14.35;10.00;;;205.40;2252.80;;;;;;5031161;28;20022;-56
2021/11/23 01:15:05;;;;;;;13.02;9.35;;;205.40;2252.80;;;;;;5030880;28;20368;-57
2021/11/23 01:17:31;;;;;;;13.75;10.50;;;205.50;2252.80;;;;;;5031084;28;20025;-57
2021/11/23 01:19:57;;;;;;;19.92;12.77;;;205.40;2252.80;;;;;;5030897;28;20029;-57
2021/11/23 01:22:22;;;;;;;12.73;9.20;;;205.50;2252.80;;;;;;5030772;28;20037;-58
2021/11/23 01:24:48;;;;;;;11.13;8.43;;;205.50;2252.80;;;;;;5031103;28;20045;-59
2021/11/23 01:27:14;;;;;;;11.73;8.90;;;205.40;2252.80;;;;;;5030760;28;20060;-58
2021/11/23 01:29:40;;;;;;;23.35;12.05;;;205.30;2252.80;;;;;;5030824;28;20037;-58
2021/11/23 01:32:06;;;;;;;15.05;8.73;;;205.30;2252.80;;;;;;5030588;28;20025;-57
2021/11/23 01:34:32;;;;;;;14.85;10.13;;;205.30;2252.80;;;;;;5030716;28;20035;-58
2021/11/23 01:36:58;;;;;;;14.20;9.50;;;205.40;2252.80;;;;;;5030965;28;20394;-58
2021/11/23 01:39:24;;;;;;;13.50;10.02;;;205.30;2252.80;;;;;;5030708;28;20017;-58
2021/11/23 01:41:50;;;;;;;11.13;8.45;;;205.40;2252.80;;;;;;5030492;28;20120;-55
2021/11/23 01:44:16;;;;;;;15.88;10.30;;;205.20;2252.80;;;;;;5030445;28;20033;-58
2021/11/23 01:46:42;;;;;;;16.02;9.70;;;205.30;2252.80;;;;;;5030547;28;20159;-58
2021/11/23 01:49:08;;;;;;;12.35;8.90;;;205.30;2252.80;;;;;;5030718;28;20049;-56
2021/11/23 01:51:34;;;;;;;14.35;10.00;;;205.30;2252.80;;;;;;5030409;28;20121;-59
2021/11/23 01:54:00;;;;;;;11.52;8.30;;;205.30;2252.80;;;;;;5030499;28;20087;-59
2021/11/23 01:56:26;;;;;;;33.55;27.00;;;205.20;2252.80;;;;;;5030365;28;20049;-57
2021/11/23 01:58:52;;;;;;;12.57;9.68;;;205.20;2252.80;;;;;;5030068;28;20037;-58
2021/11/23 02:01:18;;;;;;;13.98;9.75;;;205.30;2252.80;;;;;;5030432;28;20055;-58
2021/11/23 02:03:44;;;;;;;17.50;11.02;;;205.20;2252.80;;;;;;5030052;28;20025;-58
2021/11/23 02:06:10;;;;;;;14.63;9.10;;;205.20;2252.80;;;;;;5030318;28;20018;-58
2021/11/23 02:08:36;;;;;;;12.60;9.02;;;205.30;2252.80;;;;;;5030093;28;20033;-56
2021/11/23 02:11:02;;;;;;;12.50;7.75;;;205.30;2252.80;;;;;;5029652;28;20505;-56
2021/11/23 02:13:29;;;;;;;10.98;8.05;;;205.20;2252.80;;;;;;5030214;28;20040;-58
2021/11/23 02:15:56;;;;;;;16.48;11.35;;;205.20;2252.80;;;;;;5030076;28;20029;-57
2021/11/23 02:18:23;;;;;;;12.55;8.55;;;205.40;2252.80;;;;;;5029896;28;20029;-58
2021/11/23 02:20:50;;;;;;;12.60;8.48;;;205.20;2252.80;;;;;;5030203;28;20341;-58
2021/11/23 02:23:17;;;;;;;9.95;8.93;;;205.30;2252.80;;;;;;5030116;28;20116;-58
2021/11/23 02:25:44;;;;;;;14.05;11.15;;;205.20;2252.80;;;;;;5029847;28;20495;-56
2021/11/23 02:28:11;;;;;;;13.43;11.07;;;205.30;2252.80;;;;;;5030174;28;20487;-56
2021/11/23 02:30:45;;;;;;;12.63;8.15;;;205.30;2252.80;;;;;;5029689;28;20021;-58
2021/11/23 02:33:12;;;;;;;11.27;8.02;;;205.20;2252.80;;;;;;5030011;28;20065;-57
2021/11/23 02:35:39;;;;;;;11.30;8.63;;;205.20;2252.80;;;;;;5030135;28;20021;-56
2021/11/23 02:38:04;;;;;;;12.07;7.85;;;205.20;2252.80;;;;;;5029824;28;20029;-58
2021/11/23 02:40:30;;;;;;;11.35;8.10;;;205.10;2252.80;;;;;;5030046;28;20372;-55
2021/11/23 02:42:57;;;;;;;10.48;8.02;;;205.10;2252.80;;;;;;5029768;28;20037;-55
2021/11/23 02:45:26;;;;;;;14.70;9.13;;;205.10;2252.80;;;;;;5029795;28;20386;-58
2021/11/23 02:47:52;;;;;;;11.60;8.65;;;205.20;2252.80;;;;;;5029838;28;20017;-59
2021/11/23 02:50:19;;;;;;;15.05;9.65;;;205.20;2252.80;;;;;;5029950;28;20460;-60
2021/11/23 02:52:48;;;;;;;16.90;10.63;;;205.20;2252.80;;;;;;5029718;28;20072;-59
2021/11/23 02:55:14;;;;;;;11.63;8.55;;;205.20;2252.80;;;;;;5029648;28;20026;-56
2021/11/23 02:57:41;;;;;;;16.35;10.20;;;205.20;2252.80;;;;;;5030081;28;20021;-60
2021/11/23 03:00:17;;;;;;;14.40;9.73;;;205.20;2252.80;;;;;;5029456;28;20022;-59
2021/11/23 03:02:46;;;;;;;13.05;9.13;;;205.20;2252.80;;;;;;5029559;28;20083;-58
2021/11/23 03:05:13;;;;;;;12.68;9.05;;;205.20;2252.80;;;;;;5029838;28;20083;-58
2021/11/23 03:07:39;;;;;;;12.38;8.88;;;205.20;2252.80;;;;;;5029806;28;20072;-58
2021/11/23 03:10:07;;;;;;;17.90;10.07;;;205.20;2252.80;;;;;;5029516;28;20036;-59
2021/11/23 03:12:33;;;;;;;11.55;9.18;;;205.20;2252.80;;;;;;5029559;28;20109;-59
2021/11/23 03:14:59;;;;;;;12.15;8.38;;;205.20;2252.80;;;;;;5029665;28;20116;-59
2021/11/23 03:17:25;;;;;;;11.43;9.10;;;205.00;2252.80;;;;;;5029276;28;20083;-58
2021/11/23 03:19:51;;;;;;;11.95;8.55;;;205.00;2252.80;;;;;;5029708;28;20026;-58
2021/11/23 03:22:18;;;;;;;15.60;11.23;;;205.10;2252.80;;;;;;5032046;28;20057;-58
2021/11/23 03:24:44;;;;;;;14.30;10.73;;;205.10;2252.80;;;;;;5033004;28;20040;-57
2021/11/23 03:27:11;;;;;;;16.63;13.40;;;205.20;2252.80;;;;;;5033359;28;20118;-58
2021/11/23 03:29:37;;;;;;;13.05;9.05;;;205.20;2252.80;;;;;;5032900;28;20034;-58
2021/11/23 03:32:05;;;;;;;12.48;9.05;;;205.20;2252.80;;;;;;5032838;28;20491;-55
2021/11/23 03:34:36;;;;;;;13.23;9.48;;;205.00;2252.80;;;;;;5033362;28;20029;-58
2021/11/23 03:37:08;;;;;;;13.63;9.07;;;205.20;2252.80;;;;;;5033000;28;20991;-57
2021/11/23 03:39:34;;;;;;;12.82;9.85;;;205.20;2252.80;;;;;;5032809;28;20056;-58
2021/11/23 03:42:00;;;;;;;10.40;8.07;;;205.20;2252.80;;;;;;5032959;28;20025;-56
2021/11/23 03:44:26;;;;;;;14.13;9.77;;;205.20;2252.80;;;;;;5032636;28;20052;-58
2021/11/23 03:46:52;;;;;;;10.68;7.95;;;205.20;2252.80;;;;;;5032835;28;20091;-55
2021/11/23 03:49:18;;;;;;;9.38;7.88;;;205.10;2252.80;;;;;;5032955;28;20087;-58
2021/11/23 03:51:44;;;;;;;11.32;7.78;;;205.10;2252.80;;;;;;5032726;28;20025;-58
2021/11/23 03:54:10;;;;;;;11.18;8.27;;;204.90;2252.80;;;;;;5032765;28;20430;-57
2021/11/23 03:56:36;;;;;;;13.00;8.90;;;205.10;2252.80;;;;;;5032686;28;20025;-58
2021/11/23 03:59:02;;;;;;;8.30;6.45;;;205.10;2252.80;;;;;;5032571;28;20476;-56
2021/11/23 04:01:28;;;;;;;9.68;6.60;;;205.20;2252.80;;;;;;5032503;28;20132;-56
2021/11/23 04:03:53;;;;;;;12.85;11.55;;;205.20;2252.80;;;;;;5032322;28;20124;-55
2021/11/23 04:06:19;;;;;;;11.23;6.80;;;205.20;2252.80;;;;;;5032697;28;20033;-57
2021/11/23 04:08:45;;;;;;;7.85;5.97;;;205.20;2252.80;;;;;;5032254;28;20053;-59
2021/11/23 04:11:10;;;;;;;9.25;7.00;;;205.20;2252.80;;;;;;5032516;28;20034;-57
2021/11/23 04:13:36;;;;;;;11.32;9.60;;;205.00;2252.80;;;;;;5032360;28;20087;-57
2021/11/23 04:16:02;;;;;;;10.30;7.57;;;205.10;2252.80;;;;;;5032265;28;20552;-55
2021/11/23 04:18:28;;;;;;;10.20;7.20;;;205.00;2252.80;;;;;;5032647;28;20121;-58
2021/11/23 04:20:54;;;;;;;10.52;9.32;;;204.90;2252.80;;;;;;5032102;28;20480;-59
2021/11/23 04:23:20;;;;;;;10.13;6.78;;;205.00;2252.80;;;;;;5031994;28;20037;-56
2021/11/23 04:25:45;;;;;;;15.50;13.15;;;205.10;2252.80;;;;;;5031824;28;20087;-57
2021/11/23 04:28:11;;;;;;;7.10;5.70;;;205.10;2252.80;;;;;;5032233;28;20102;-56
2021/11/23 04:30:37;;;;;;;8.18;7.35;;;205.10;2252.80;;;;;;5031655;28;20152;-57
2021/11/23 04:33:02;;;;;;;10.35;8.57;;;205.00;2252.80;;;;;;5031130;28;20033;-57
2021/11/23 04:35:28;;;;;;;9.20;8.23;;;204.90;2252.80;;;;;;5031970;28;20029;-55
2021/11/23 04:37:54;;;;;;;11.32;10.32;;;204.90;2252.80;;;;;;5031719;28;20021;-58
2021/11/23 04:40:20;;;;;;;7.93;6.65;;;205.00;2252.80;;;;;;5031884;28;20192;-57
2021/11/23 04:42:45;;;;;;;15.15;13.77;;;205.00;2252.80;;;;;;5031509;28;20030;-57
2021/11/23 04:45:13;;;;;;;8.52;7.70;;;204.90;2252.80;;;;;;5032054;28;20053;-58
2021/11/23 04:47:39;;;;;;;7.93;7.13;;;204.90;2252.80;;;;;;5031596;28;20029;-55
2021/11/23 04:50:07;;;;;;;6.13;5.47;;;205.00;2252.80;;;;;;5030805;28;20033;-57
2021/11/23 04:52:33;;;;;;;9.23;7.85;;;204.90;2252.80;;;;;;5020078;28;20117;-56
2021/11/23 04:54:59;;;;;;;9.68;8.68;;;204.80;2252.80;;;;;;5021826;28;20061;-58
2021/11/23 04:57:25;;;;;;;9.65;6.60;;;204.90;2252.80;;;;;;5014321;28;20136;-57
2021/11/23 04:59:51;;;;;;;6.72;5.80;;;205.00;2252.80;;;;;;5011609;28;20046;-57
2021/11/23 05:02:18;;;;;;;8.90;6.60;;;205.10;2252.80;;;;;;5011130;28;20061;-56
2021/11/23 05:04:45;;;;;;;10.05;9.07;;;205.10;2252.80;;;;;;5011650;28;20034;-57
2021/11/23 05:07:10;;;;;;;10.32;7.43;;;205.20;2252.80;;;;;;5011677;28;20022;-56
2021/11/23 05:09:36;;;;;;;7.53;6.70;;;205.20;2252.80;;;;;;5011246;28;20721;-56
2021/11/23 05:12:02;;;;;;;10.57;7.90;;;205.20;2252.80;;;;;;5011585;28;20660;-58
2021/11/23 05:14:28;;;;;;;9.85;7.38;;;205.20;2252.80;;;;;;5011557;28;20022;-59
2021/11/23 05:16:54;;;;;;;12.05;10.45;;;205.20;2252.80;;;;;;5011205;28;20515;-57
2021/11/23 05:19:20;;;;;;;8.82;7.32;;;205.20;2252.80;;;;;;5011519;28;20026;-58
2021/11/23 05:21:45;;;;;;;10.30;7.28;;;205.10;2252.80;;;;;;5011116;28;20499;-57
2021/11/23 05:24:13;;;;;;;7.03;4.88;;;205.20;2252.80;;;;;;5011421;28;20038;-58
2021/11/23 05:26:39;;;;;;;11.80;7.45;;;205.20;2252.80;;;;;;5011290;28;20113;-57
2021/11/23 05:29:05;;;;;;;8.13;5.97;;;205.10;2252.80;;;;;;5010993;28;20172;-57
2021/11/23 05:31:33;;;;;;;27.00;24.45;;;205.10;2252.80;;;;;;5011147;28;20018;-56
2021/11/23 05:33:59;;;;;;;18.38;16.45;;;205.20;2252.80;;;;;;5010983;28;20044;-58
2021/11/23 05:36:25;;;;;;;10.95;6.28;;;205.10;2252.80;;;;;;5010905;28;20543;-57
2021/11/23 05:38:51;;;;;;;8.38;6.05;;;205.30;2252.80;;;;;;5011097;28;20108;-58
2021/11/23 05:41:17;;;;;;;8.35;5.75;;;205.20;2252.80;;;;;;5010578;28;20026;-58
2021/11/23 05:43:43;;;;;;;12.60;7.10;;;205.20;2252.80;;;;;;5010863;28;20091;-55
2021/11/23 05:46:09;;;;;;;10.18;6.57;;;205.30;2252.80;;;;;;5010144;28;20049;-60
2021/11/23 05:48:35;;;;;;;8.77;6.03;;;205.20;2252.80;;;;;;5010702;28;20029;-56
2021/11/23 05:51:04;;;;;;;9.63;7.07;;;205.20;2252.80;;;;;;5010734;28;20538;-58
2021/11/23 05:53:35;;;;;;;10.43;6.95;;;205.20;2252.80;;;;;;5010834;28;20030;-57
2021/11/23 05:56:01;;;;;;;10.77;6.90;;;205.20;2252.80;;;;;;5010829;28;20030;-56
2021/11/23 05:58:27;;;;;;;9.43;6.63;;;205.20;2252.80;;;;;;5010648;28;20026;-54
2021/11/23 06:00:53;;;;;;;11.43;8.23;;;205.10;2252.80;;;;;;5010443;28;21004;-57
2021/11/23 06:03:19;;;;;;;12.98;7.97;;;205.20;2252.80;;;;;;5010637;28;20551;-56
2021/11/23 06:05:45;;;;;;;9.90;7.95;;;205.40;2252.80;;;;;;5010579;28;20342;-58
2021/11/23 06:08:11;;;;;;;22.02;18.98;;;205.40;2252.80;;;;;;5010839;28;20037;-56
2021/11/23 06:10:36;;;;;;;12.30;8.45;;;205.30;2252.80;;;;;;5010395;28;20026;-55
2021/11/23 06:13:03;;;;;;;15.05;10.02;;;205.40;2252.80;;;;;;5010586;28;20840;-56
2021/11/23 06:15:29;;;;;;;10.25;8.35;;;205.40;2252.80;;;;;;5010730;28;20030;-56
2021/11/23 06:18:02;;;;;;;12.00;9.30;;;205.40;2252.80;;;;;;5010327;28;20029;-56
2021/11/23 06:20:30;;;;;;;12.10;7.50;;;205.50;2252.80;;;;;;5010724;28;20022;-55
2021/11/23 06:23:01;;;;;;;10.13;6.97;;;205.60;2252.80;;;;;;5010316;28;20053;-55
2021/11/23 06:25:27;;;;;;;12.00;7.55;;;205.50;2252.80;;;;;;5010236;28;20036;-56
2021/11/23 06:27:53;;;;;;;10.70;7.70;;;205.60;2252.80;;;;;;5010142;28;20569;-56
2021/11/23 06:30:20;;;;;;;10.35;6.75;;;205.50;2252.80;;;;;;5010242;28;20037;-56
2021/11/23 06:32:45;;;;;;;10.18;7.35;;;205.50;2252.80;;;;;;5010162;28;20036;-56
2021/11/23 06:35:12;;;;;;;10.32;7.05;;;205.50;2252.80;;;;;;5010425;28;20450;-55
2021/11/23 06:37:38;;;;;;;12.30;8.18;;;205.50;2252.80;;;;;;5010540;28;20029;-56
2021/11/23 06:40:06;;;;;;;14.88;9.20;;;205.60;2252.80;;;;;;5010338;28;20030;-57
2021/11/23 06:42:31;;;;;;;14.25;9.32;;;205.70;2252.80;;;;;;5010090;28;20472;-56
2021/11/23 06:44:57;;;;;;;12.50;9.25;;;205.70;2252.80;;;;;;5009897;28;20041;-53
2021/11/23 06:47:23;;;;;;;12.55;8.65;;;230.40;2252.80;;;;;;5010079;28;20427;-56
2021/11/23 06:49:51;;;;;;;13.48;9.65;;;230.40;2252.80;;;;;;5010446;28;20036;-59
2021/11/23 06:52:18;;;;;;;11.57;8.45;;;230.40;2252.80;;;;;;5009961;28;20022;-60
2021/11/23 06:54:45;;;;;;;14.48;10.15;;;230.40;2252.80;;;;;;5009751;28;20026;-61
2021/11/23 06:57:10;;;;;;;26.65;23.00;;;230.50;2252.80;;;;;;5012918;28;20436;-59
2021/11/23 06:59:38;;;;;;;219.73;135.85;;;230.60;2252.80;;;;;;5013820;28;20038;-59
2021/11/23 07:02:04;;;;;;;105.70;78.90;;;230.60;2252.80;;;;;;5013495;28;20054;-60
2021/11/23 07:04:30;;;;;;;90.70;58.72;;;230.60;2252.80;;;;;;5013664;28;20498;-60
2021/11/23 07:06:55;;;;;;;41.22;29.77;;;230.60;2252.80;;;;;;5013692;28;20025;-60
2021/11/23 07:09:21;;;;;;;149.50;108.13;;;230.50;2252.80;;;;;;5013816;28;20026;-60
2021/11/23 07:11:47;;;;;;;19.60;14.45;;;230.60;2252.80;;;;;;5013377;28;20057;-60
2021/11/23 07:14:13;;;;;;;25.27;19.63;;;230.60;2252.80;;;;;;5013596;28;20030;-61
2021/11/23 07:16:39;;;;;;;31.77;28.88;;;230.60;2252.80;;;;;;5013805;28;20037;-60
2021/11/23 07:19:05;;;;;;;40.55;36.38;;;230.60;2252.80;;;;;;5013427;28;20112;-60
2021/11/23 07:21:32;;;;;;;17.88;12.80;;;230.60;2252.80;;;;;;5013847;28;20099;-63
2021/11/23 07:23:58;;;;;;;22.90;15.57;;;230.50;2252.80;;;;;;5013400;28;20042;-61
2021/11/23 07:26:25;;;;;;;13.38;10.60;;;230.50;2252.80;;;;;;5013374;28;20018;-60
2021/11/23 07:28:51;;;;;;;43.50;39.08;;;230.60;2252.80;;;;;;5044995;28;20037;-61
2021/11/23 07:31:17;;;;;;;36.30;33.13;;;230.60;2252.80;;;;;;5011757;28;20026;-59
2021/11/23 07:33:43;;;;;;;18.45;14.45;;;230.70;2252.80;;;;;;5013457;28;20488;-60
2021/11/23 07:36:08;;;;;;;16.15;13.70;;;230.90;2252.80;;;;;;5013634;28;20026;-60
2021/11/23 07:38:34;;;;;;;19.25;12.50;;;230.90;2252.80;;;;;;5013098;28;20034;-60
2021/11/23 07:41:00;;;;;;;49.17;32.75;;;230.90;2252.80;;;;;;5013261;28;20435;-59
2021/11/23 07:43:26;;;;;;;18.15;14.90;;;231.00;2252.80;;;;;;5012859;28;20358;-59
2021/11/23 07:45:51;;;;;;;30.35;21.48;;;231.00;2252.80;;;;;;5013291;28;20048;-60
2021/11/23 07:48:17;;;;;;;13.57;10.27;;;230.80;2252.80;;;;;;5012977;28;20026;-60
2021/11/23 07:50:43;;;;;;;28.80;21.77;;;230.90;2252.80;;;;;;5012922;28;20026;-63
2021/11/23 07:53:09;;;;;;;19.60;13.07;;;231.00;2252.80;;;;;;5013318;28;20030;-61
2021/11/23 07:55:35;;;;;;;15.55;10.93;;;231.00;2252.80;;;;;;5012884;28;20465;-61
2021/11/23 07:58:02;;;;;;;18.98;12.15;;;231.10;2252.80;;;;;;5012006;28;20373;-60
2021/11/23 08:00:29;;;;;;;20.05;15.45;;;231.20;2252.80;;;;;;5012561;28;20046;-59
2021/11/23 08:02:55;;;;;;;65.90;58.70;;;231.20;2252.80;;;;;;5012552;28;20041;-59
2021/11/23 08:05:22;;;;;;;21.67;12.48;;;231.30;2252.80;;;;;;5012848;28;20536;-59
2021/11/23 08:07:48;;;;;;;20.70;16.70;;;231.20;2252.80;;;;;;5011688;28;20030;-59
2021/11/23 08:10:14;;;;;;;16.98;12.23;;;231.30;2252.80;;;;;;5012557;28;20018;-60
2021/11/23 08:12:40;;;;;;;18.60;12.45;;;256.00;2252.80;;;;;;5012624;28;20022;-60
2021/11/23 08:15:06;;;;;;;20.30;13.80;;;256.10;2252.80;;;;;;5012477;28;20022;-59
2021/11/23 08:17:32;;;;;;;19.35;13.32;;;256.20;2252.80;;;;;;5012743;28;20022;-61
2021/11/23 08:19:58;;;;;;;18.98;12.70;;;256.00;2252.80;;;;;;5012966;28;20037;-60
2021/11/23 08:22:24;;;;;;;20.48;13.90;;;256.10;2252.80;;;;;;5012189;28;20373;-60
2021/11/23 08:24:50;;;;;;;19.42;13.20;;;256.10;2252.80;;;;;;5012399;28;20033;-60
2021/11/23 08:27:16;;;;;;;19.83;13.15;;;256.20;2252.80;;;;;;5012410;28;20056;-60
2021/11/23 08:29:42;;;;;;;21.38;14.52;;;256.20;2252.80;;;;;;5012567;28;20042;-59
2021/11/23 08:32:08;;;;;;;16.65;12.45;;;256.40;2252.80;;;;;;5012364;28;20388;-59
2021/11/23 08:34:34;;;;;;;26.25;20.77;;;256.70;2252.80;;;;;;5012030;28;20032;-60
2021/11/23 08:37:01;;;;;;;26.02;17.77;;;256.90;2252.80;;;;;;5012193;28;20462;-59
2021/11/23 08:39:26;;;;;;;20.52;15.23;;;281.70;2278.40;;;;;;5011946;28;20076;-56
2021/11/23 08:41:52;;;;;;;20.55;14.02;;;281.70;2278.40;;;;;;5012042;28;20049;-58
2021/11/23 08:44:19;;;;;;;31.25;19.25;;;281.80;2278.40;;;;;;5012060;28;20041;-58
2021/11/23 08:46:45;;;;;;;18.95;12.68;;;281.80;2278.40;;;;;;5011879;28;20033;-59
2021/11/23 08:49:11;;;;;;;17.42;12.73;;;282.00;2278.40;;;;;;5012146;28;20030;-59
2021/11/23 08:51:38;;;;;;;36.97;24.95;;;282.00;2278.40;;;;;;5043367;28;20038;-59
2021/11/23 08:54:05;;;;;;;19.40;13.07;;;282.20;2278.40;;;;;;5011542;28;20091;-59
2021/11/23 08:56:37;;;;;;;26.42;18.63;;;282.30;2278.40;;;;;;5011780;28;20030;-59
2021/11/23 08:59:08;;;;;;;26.00;16.20;;;282.20;2278.40;;;;;;5011458;28;20156;-59
2021/11/23 09:01:34;;;;;;;29.90;21.15;;;282.20;2278.40;;;;;;5011483;28;20405;-60
2021/11/23 09:04:03;;;;;;;31.58;24.52;;;282.00;2278.40;;;;;;5011542;28;20103;-59
2021/11/23 09:06:30;;;;;;;33.53;25.35;;;282.00;2278.40;;;;;;5011692;28;20025;-59
2021/11/23 09:08:57;;;;;;;26.95;17.92;;;282.10;2278.40;;;;;;5011416;28;20040;-59
2021/11/23 09:11:24;;;;;;;23.15;15.68;;;282.30;2278.40;;;;;;5011284;28;20523;-60
2021/11/23 09:13:51;;;;;;;27.23;18.42;;;282.30;2278.40;;;;;;5011524;28;20049;-59
2021/11/23 09:16:17;;;;;;;30.88;22.83;;;282.50;2278.40;;;;;;5011362;28;20022;-59
2021/11/23 09:18:43;;;;;;;27.10;19.67;;;307.30;2304.00;;;;;;5011027;28;20108;-60
2021/11/23 09:21:09;;;;;;;63.72;43.42;;;307.20;2304.00;;;;;;5011556;28;20104;-59
2021/11/23 09:23:35;;;;;;;28.23;20.25;;;307.40;2304.00;;;;;;5011222;28;20087;-60
2021/11/23 09:26:01;;;;;;;27.83;18.02;;;307.30;2304.00;;;;;;5011261;28;20022;-60
2021/11/23 09:28:26;;;;;;;34.90;23.00;;;307.20;2304.00;;;;;;5011041;28;20022;-61
2021/11/23 09:30:52;;;;;;;29.23;20.02;;;307.20;2304.00;;;;;;5011094;28;20053;-60
2021/11/23 09:33:18;;;;;;;36.67;24.05;;;282.50;2278.40;;;;;;5010939;28;20033;-60
2021/11/23 09:35:44;;;;;;;34.33;21.73;;;307.20;2304.00;;;;;;5010953;28;20072;-60
2021/11/23 09:38:09;;;;;;;46.22;29.88;;;282.50;2278.40;;;;;;5011264;28;20117;-60
2021/11/23 09:40:36;;;;;;;41.35;29.95;;;282.10;2278.40;;;;;;5011027;28;20026;-60
2021/11/23 09:43:03;;;;;;;41.60;28.65;;;281.90;2278.40;;;;;;5011025;28;20030;-60
2021/11/23 09:45:29;;;;;;;40.30;27.02;;;281.90;2278.40;;;;;;5011022;28;20026;-60
2021/11/23 09:47:55;;;;;;;55.70;38.95;;;281.80;2278.40;;;;;;5010565;28;20030;-60
2021/11/23 09:50:21;;;;;;;36.67;22.60;;;282.00;2278.40;;;;;;5011025;28;20420;-60
2021/11/23 09:52:47;;;;;;;37.08;27.60;;;282.00;2278.40;;;;;;5010601;28;20104;-60
2021/11/23 09:55:15;;;;;;;42.92;26.88;;;281.70;2278.40;;;;;;5010761;28;20507;-60
2021/11/23 09:57:41;;;;;;;38.92;24.80;;;281.80;2278.40;;;;;;5010922;28;20018;-60
2021/11/23 10:00:22;;;;;;;42.88;26.10;;;281.70;2278.40;;;;;;5010254;28;20380;-60
2021/11/23 10:02:48;;;;;;;41.63;26.27;;;281.70;2278.40;;;;;;5010382;28;20095;-60
2021/11/23 10:05:15;;;;;;;59.50;45.90;;;281.90;2278.40;;;;;;5010514;28;20098;-60
2021/11/23 10:07:45;;;;;;;41.17;26.55;;;282.00;2278.40;;;;;;5010637;28;20472;-61
2021/11/23 10:10:18;;;;;;;45.85;30.63;;;282.00;2278.40;;;;;;5010528;28;20515;-61
2021/11/23 10:12:55;;;;;;;41.17;27.25;;;282.10;2278.40;;;;;;5010270;28;20512;-61
2021/11/23 10:15:34;;;;;;;42.63;25.85;;;282.00;2278.40;;;;;;5010443;28;20046;-60
2021/11/23 10:18:08;;;;;;;45.20;27.33;;;281.90;2278.40;;;;;;5010416;28;20028;-60
2021/11/23 10:20:46;;;;;;;46.97;33.92;;;282.00;2278.40;;;;;;5010205;28;20030;-60
2021/11/23 10:23:26;;;;;;;42.97;28.63;;;281.90;2278.40;;;;;;5010354;28;20048;-60
2021/11/23 10:26:00;;;;;;;44.53;28.15;;;281.70;2278.40;;;;;;5010279;28;20480;-60
2021/11/23 10:28:30;;;;;;;53.13;29.92;;;281.80;2278.40;;;;;;5010202;28;20029;-60
2021/11/23 10:30:57;;;;;;;54.95;30.52;;;281.80;2278.40;;;;;;5012130;28;20041;-60
2021/11/23 10:33:24;;;;;;;53.00;33.90;;;281.90;2278.40;;;;;;5016544;28;20385;-60
2021/11/23 10:35:52;;;;;;;50.88;32.70;;;281.80;2278.40;;;;;;5016800;28;20033;-60
2021/11/23 10:38:20;;;;;;;46.33;31.63;;;281.90;2278.40;;;;;;5016741;28;20030;-61
2021/11/23 10:40:49;;;;;;;50.92;30.42;;;281.70;2278.40;;;;;;5016516;28;20113;-60
2021/11/23 10:43:17;;;;;;;78.70;68.80;;;281.60;2278.40;;;;;;5016315;28;20496;-61
2021/11/23 10:45:48;;;;;;;44.95;30.88;;;281.70;2278.40;;;;;;5016432;28;20480;-61
2021/11/23 10:48:15;;;;;;;46.42;30.15;;;281.80;2278.40;;;;;;5016368;28;20105;-61
2021/11/23 10:50:55;;;;;;;41.85;27.80;;;281.80;2278.40;;;;;;5016634;28;20022;-60
2021/11/23 10:53:23;;;;;;;49.78;30.75;;;281.70;2278.40;;;;;;5016641;28;20025;-60
2021/11/23 10:55:49;;;;;;;45.20;28.50;;;281.70;2278.40;;;;;;5016437;28;20477;-61
2021/11/23 10:58:15;;;;;;;52.45;30.00;;;281.70;2278.40;;;;;;5016362;28;20069;-60
2021/11/23 11:00:47;;;;;;;53.17;30.77;;;281.70;2278.40;;;;;;5016527;28;20038;-60
2021/11/23 11:03:15;;;;;;;59.13;38.83;;;281.70;2278.40;;;;;;5016529;28;20396;-61
2021/11/23 11:05:43;;;;;;;52.53;34.00;;;281.70;2278.40;;;;;;5016798;28;20026;-60
2021/11/23 11:08:09;;;;;;;48.75;31.52;;;256.90;2252.80;;;;;;5016903;28;20026;-61
2021/11/23 11:10:37;;;;;;;48.53;33.97;;;281.60;2278.40;;;;;;5016441;28;20029;-61
2021/11/23 11:13:06;;;;;;;50.67;32.75;;;281.70;2278.40;;;;;;5016698;28;20060;-60
2021/11/23 11:15:48;;;;;;;53.92;34.63;;;281.80;2278.40;;;;;;5016558;28;20025;-60
2021/11/23 11:18:16;;;;;;;47.22;31.27;;;281.70;2278.40;;;;;;5016331;28;20026;-60
2021/11/23 11:20:44;;;;;;;48.88;30.33;;;281.60;2278.40;;;;;;5014825;28;20049;-60
2021/11/23 11:23:21;;;;;;;52.15;30.88;;;281.70;2278.40;;;;;;5014655;28;20042;-60
2021/11/23 11:26:08;;;;;;;50.95;33.33;;;281.80;2278.40;;;;;;5014705;28;20052;-59
2021/11/23 11:29:01;;;;;;;51.85;30.88;;;281.80;2278.40;;;;;;5014470;28;20026;-60
2021/11/23 11:31:47;;;;;;;55.08;34.85;;;281.90;2278.40;;;;;;5014712;28;20038;-60
2021/11/23 11:34:26;;;;;;;57.97;35.72;;;282.00;2278.40;;;;;;5014232;28;20116;-60
2021/11/23 11:37:12;;;;;;;78.05;48.60;;;282.10;2278.40;;;;;;5014561;28;20453;-60
2021/11/23 11:39:41;;;;;;;72.85;46.42;;;282.20;2278.40;;;;;;5014453;28;20032;-59
2021/11/23 11:42:20;;;;;;;90.72;55.30;;;282.10;2278.40;;;;;;5013833;28;20029;-60
2021/11/23 11:44:53;;;;;;;75.65;53.67;;;282.00;2278.40;;;;;;5011265;28;20515;-60
2021/11/23 11:47:31;;;;;;;68.97;47.03;;;282.00;2278.40;;;;;;5011012;28;20022;-60
2021/11/23 11:50:02;;;;;;;63.10;39.20;;;282.00;2278.40;;;;;;5011500;28;20161;-60
2021/11/23 11:52:31;;;;;;;87.07;53.33;;;282.00;2278.40;;;;;;5011271;28;20029;-60
2021/11/23 11:55:13;;;;;;;60.25;39.42;;;282.20;2278.40;;;;;;5011263;28;20053;-59
2021/11/23 11:57:43;;;;;;;48.40;33.17;;;282.00;2278.40;;;;;;5011392;28;20099;-59
2021/11/23 12:00:21;;;;;;;56.55;34.78;;;281.90;2278.40;;;;;;5010454;28;20038;-60
2021/11/23 12:02:48;;;;;;;68.35;45.47;;;281.60;2278.40;;;;;;5011197;28;20037;-59
2021/11/23 12:05:16;;;;;;;64.20;46.35;;;256.90;2252.80;;;;;;5011282;28;20117;-60